Time;durP1;ratioP1;P1;durP2;ratioP2;P2;SDS_P1;SDS_P2;PMS_P1;PMS_P2;Temp;Humidity;BMP_temperature;BMP_pressure;BME280_temperature;BME280_humidity;BME280_pressure;Samples;Min_cycle;Max_cycle;Signal;HPM_P1;HPM_P2
2022/10/29 00:00:48;;;;;;;10.00;5.80;;;20.20;99.90;;;;;;5051736;28;21006;-75
2022/10/29 00:03:14;;;;;;;9.90;5.90;;;20.20;99.90;;;;;;5051135;28;20564;-75
2022/10/29 00:05:39;;;;;;;9.93;6.07;;;20.30;99.90;;;;;;5051582;28;20677;-74
2022/10/29 00:08:05;;;;;;;11.50;6.00;;;20.30;99.90;;;;;;5050405;28;20639;-74
2022/10/29 00:10:31;;;;;;;10.40;5.53;;;20.30;99.90;;;;;;5051480;28;20165;-75
2022/10/29 00:13:06;;;;;;;12.67;5.93;;;20.30;99.90;;;;;;5051048;28;20173;-75
2022/10/29 00:15:31;;;;;;;10.17;5.93;;;20.30;99.90;;;;;;5051323;28;20184;-74
2022/10/29 00:17:57;;;;;;;10.83;6.20;;;20.30;99.90;;;;;;5050286;28;20580;-74
2022/10/29 00:20:23;;;;;;;12.47;6.57;;;20.40;99.90;;;;;;5051460;28;20173;-75
2022/10/29 00:22:52;;;;;;;12.00;6.40;;;20.40;99.90;;;;;;5053990;28;20586;-75
2022/10/29 00:25:18;;;;;;;10.07;6.10;;;20.40;99.90;;;;;;5050112;28;20604;-75
2022/10/29 00:27:44;;;;;;;10.47;5.87;;;20.40;99.90;;;;;;5051114;28;20712;-75
2022/10/29 00:30:10;;;;;;;12.53;6.57;;;20.40;99.90;;;;;;5051179;28;20181;-74
2022/10/29 00:32:36;;;;;;;7.73;5.83;;;20.50;99.90;;;;;;5050678;28;20173;-75
2022/10/29 00:35:02;;;;;;;9.70;5.23;;;20.40;99.90;;;;;;5051194;28;20602;-75
2022/10/29 00:37:28;;;;;;;13.40;6.33;;;20.40;99.90;;;;;;5051170;28;20272;-75
2022/10/29 00:39:53;;;;;;;11.07;5.80;;;20.40;99.90;;;;;;5051090;28;20990;-75
2022/10/29 00:42:19;;;;;;;7.83;5.80;;;20.40;99.90;;;;;;5053013;28;20219;-75
2022/10/29 00:44:45;;;;;;;12.43;6.53;;;20.40;99.90;;;;;;5054413;28;20629;-75
2022/10/29 00:47:31;;;;;;;8.77;5.30;;;20.40;99.90;;;;;;5054708;28;20172;-75
2022/10/29 00:50:05;;;;;;;8.43;5.57;;;20.30;99.90;;;;;;5054808;28;20530;-75
2022/10/29 00:52:33;;;;;;;11.50;6.87;;;20.30;99.90;;;;;;5054231;28;20987;-75
2022/10/29 00:55:06;;;;;;;9.50;5.47;;;20.30;99.90;;;;;;5054410;28;20583;-75
2022/10/29 00:57:47;;;;;;;9.43;5.63;;;20.30;99.90;;;;;;5054480;28;20568;-75
2022/10/29 01:00:14;;;;;;;12.47;6.47;;;20.30;99.90;;;;;;5056894;28;20987;-75
2022/10/29 01:02:42;;;;;;;11.03;6.07;;;20.30;99.90;;;;;;5054000;28;20625;-74
2022/10/29 01:05:09;;;;;;;9.90;5.30;;;20.20;99.90;;;;;;5054371;28;21032;-75
2022/10/29 01:07:36;;;;;;;11.43;5.70;;;20.20;99.90;;;;;;5054217;28;20564;-75
2022/10/29 01:10:01;;;;;;;7.53;5.77;;;20.20;99.90;;;;;;5054207;28;20564;-75
2022/10/29 01:12:43;;;;;;;12.03;4.67;;;20.10;99.90;;;;;;5052584;28;20598;-75
2022/10/29 01:15:35;;;;;;;10.00;5.80;;;20.10;99.90;;;;;;5054180;28;20272;-74
2022/10/29 01:18:13;;;;;;;10.07;6.40;;;20.00;99.90;;;;;;5053498;28;20583;-74
2022/10/29 01:21:06;;;;;;;8.97;6.33;;;19.90;99.90;;;;;;5053865;28;20567;-74
2022/10/29 01:24:13;;;;;;;7.87;5.23;;;19.90;99.90;;;;;;5053606;28;20575;-74
2022/10/29 01:27:06;;;;;;;10.80;4.87;;;19.80;99.90;;;;;;5053656;28;20686;-74
2022/10/29 01:29:59;;;;;;;8.03;5.50;;;19.70;99.90;;;;;;5035670;28;20703;-74
2022/10/29 01:32:53;;;;;;;8.87;5.10;;;19.70;99.90;;;;;;5035460;28;20917;-74
2022/10/29 01:35:31;;;;;;;9.97;5.90;;;19.60;99.90;;;;;;5055691;28;20595;-74
2022/10/29 01:38:08;;;;;;;10.37;4.77;;;19.60;99.90;;;;;;5054034;28;20602;-74
2022/10/29 01:40:59;;;;;;;11.10;6.50;;;19.50;99.90;;;;;;5052515;28;20610;-73
2022/10/29 01:43:39;;;;;;;12.43;5.40;;;19.50;99.90;;;;;;5053143;28;21064;-73
2022/10/29 01:46:16;;;;;;;10.63;5.20;;;19.50;99.90;;;;;;5053261;28;20706;-74
2022/10/29 01:48:46;;;;;;;10.23;4.93;;;19.50;99.90;;;;;;5052247;28;20662;-73
2022/10/29 01:51:19;;;;;;;6.83;4.50;;;19.50;99.90;;;;;;5035574;28;20559;-74
2022/10/29 01:53:45;;;;;;;7.20;4.47;;;19.50;99.90;;;;;;5053024;28;20575;-74
2022/10/29 01:56:11;;;;;;;8.87;4.90;;;19.50;99.90;;;;;;5053084;28;20603;-74
2022/10/29 01:58:40;;;;;;;12.37;5.00;;;19.50;99.90;;;;;;5053298;28;20627;-73
2022/10/29 02:01:55;;;;;;;7.50;4.90;;;19.50;99.90;;;;;;5053167;28;20252;-74
2022/10/29 02:04:32;;;;;;;14.00;6.33;;;19.50;99.90;;;;;;5022010;28;20595;-73
2022/10/29 02:07:16;;;;;;;9.53;5.93;;;19.50;99.90;;;;;;5053195;28;20560;-74
2022/10/29 02:10:26;;;;;;;10.13;5.20;;;19.40;99.90;;;;;;5053043;28;21189;-73
2022/10/29 02:12:54;;;;;;;9.53;5.63;;;19.40;99.90;;;;;;5055518;28;20674;-73
2022/10/29 02:15:28;;;;;;;12.20;5.33;;;19.40;99.90;;;;;;5051700;28;20973;-74
2022/10/29 02:17:59;;;;;;;9.73;5.47;;;19.30;99.90;;;;;;5052904;28;20574;-74
2022/10/29 02:20:24;;;;;;;8.60;4.70;;;19.30;99.90;;;;;;5052896;28;20971;-74
2022/10/29 02:22:50;;;;;;;13.47;5.67;;;19.30;99.90;;;;;;5052420;28;20663;-74
2022/10/29 02:25:16;;;;;;;8.37;4.53;;;19.30;99.90;;;;;;5052589;28;20676;-74
2022/10/29 02:27:42;;;;;;;12.00;4.70;;;19.30;99.90;;;;;;5052481;28;20165;-74
2022/10/29 02:30:08;;;;;;;9.07;4.33;;;19.30;99.90;;;;;;5052665;28;20568;-74
2022/10/29 02:32:33;;;;;;;7.63;4.57;;;19.30;99.90;;;;;;5052124;28;20219;-74
2022/10/29 02:35:00;;;;;;;6.53;4.00;;;19.30;99.90;;;;;;5052528;28;20943;-74
2022/10/29 02:37:27;;;;;;;8.47;4.17;;;19.30;99.90;;;;;;5052495;28;20255;-74
2022/10/29 02:39:52;;;;;;;6.20;4.33;;;19.30;99.90;;;;;;5052408;28;20574;-74
2022/10/29 02:42:18;;;;;;;10.90;5.40;;;19.20;99.90;;;;;;5052522;28;20571;-74
2022/10/29 02:44:44;;;;;;;6.60;4.00;;;19.20;99.90;;;;;;5051342;28;20667;-74
2022/10/29 02:47:10;;;;;;;11.13;4.63;;;19.10;99.90;;;;;;5052528;28;20181;-74
2022/10/29 02:49:36;;;;;;;9.80;4.20;;;19.10;99.90;;;;;;5056562;28;20224;-74
2022/10/29 02:52:03;;;;;;;9.60;4.73;;;19.00;99.90;;;;;;5052153;28;20192;-74
2022/10/29 02:54:29;;;;;;;10.83;5.50;;;18.90;99.90;;;;;;5052295;28;20591;-74
2022/10/29 02:56:54;;;;;;;6.80;4.20;;;18.80;99.90;;;;;;5034189;28;20642;-74
2022/10/29 02:59:20;;;;;;;6.83;4.30;;;18.70;99.90;;;;;;5052082;28;20208;-74
2022/10/29 03:01:46;;;;;;;9.03;4.43;;;18.70;99.90;;;;;;5052133;28;20177;-74
2022/10/29 03:04:11;;;;;;;11.00;4.20;;;18.60;99.90;;;;;;5051244;28;20698;-74
2022/10/29 03:06:37;;;;;;;11.13;5.70;;;18.60;99.90;;;;;;5051928;28;20235;-74
2022/10/29 03:09:03;;;;;;;6.37;4.03;;;18.60;99.90;;;;;;5051767;28;20255;-74
2022/10/29 03:11:29;;;;;;;7.47;4.03;;;18.60;99.90;;;;;;5051763;28;20211;-74
2022/10/29 03:13:55;;;;;;;10.70;5.10;;;18.60;99.90;;;;;;5051586;28;21118;-74
2022/10/29 03:16:21;;;;;;;10.17;3.70;;;18.50;99.90;;;;;;5051640;28;20189;-74
2022/10/29 03:18:46;;;;;;;7.27;3.87;;;18.50;99.90;;;;;;5033894;28;20191;-74
2022/10/29 03:21:12;;;;;;;7.77;4.03;;;18.50;99.90;;;;;;5050500;28;20271;-74
2022/10/29 03:23:38;;;;;;;9.77;4.70;;;18.40;99.90;;;;;;5051498;28;20208;-74
2022/10/29 03:26:04;;;;;;;12.10;5.17;;;18.40;99.90;;;;;;5054773;28;20292;-74
2022/10/29 03:28:29;;;;;;;10.47;5.00;;;18.40;99.90;;;;;;5053176;28;20679;-74
2022/10/29 03:30:56;;;;;;;9.63;4.70;;;18.30;99.90;;;;;;5033829;28;21109;-74
2022/10/29 03:33:25;;;;;;;10.13;4.17;;;18.30;99.90;;;;;;5049943;28;20169;-74
2022/10/29 03:36:02;;;;;;;7.47;4.13;;;18.20;99.90;;;;;;5051493;28;20583;-74
2022/10/29 03:38:28;;;;;;;7.23;4.10;;;18.20;99.90;;;;;;5051299;28;20567;-74
2022/10/29 03:40:54;;;;;;;10.67;4.90;;;18.20;99.90;;;;;;5051509;28;20586;-74
2022/10/29 03:43:21;;;;;;;7.20;5.17;;;18.20;99.90;;;;;;5051119;28;20572;-74
2022/10/29 03:45:54;;;;;;;10.80;4.80;;;18.10;99.90;;;;;;5051440;28;20208;-74
2022/10/29 03:48:20;;;;;;;14.50;5.50;;;18.10;99.90;;;;;;5051374;28;20650;-74
2022/10/29 03:51:06;;;;;;;6.60;4.43;;;18.10;99.90;;;;;;5051529;28;20633;-74
2022/10/29 03:53:34;;;;;;;10.17;4.27;;;18.10;99.90;;;;;;5033328;28;20560;-74
2022/10/29 03:56:01;;;;;;;10.90;5.30;;;18.10;99.90;;;;;;5033508;28;20595;-74
2022/10/29 03:58:27;;;;;;;11.93;6.00;;;18.00;99.90;;;;;;5051785;28;20938;-75
2022/10/29 04:00:58;;;;;;;11.33;4.20;;;18.00;99.90;;;;;;5052020;28;20575;-75
2022/10/29 04:03:25;;;;;;;5.60;3.90;;;18.00;99.90;;;;;;5053847;28;20575;-83
2022/10/29 04:05:50;;;;;;;5.83;4.37;;;18.00;99.90;;;;;;5051562;28;21022;-82
2022/10/29 04:08:16;;;;;;;7.83;4.30;;;18.00;99.90;;;;;;5057499;28;20611;-82
2022/10/29 04:10:47;;;;;;;9.27;4.67;;;18.00;99.90;;;;;;5069821;28;20175;-85
2022/10/29 04:13:14;;;;;;;7.50;4.20;;;18.00;99.90;;;;;;5067754;28;20575;-82
2022/10/29 04:15:40;;;;;;;6.57;4.07;;;18.00;99.90;;;;;;5068355;28;20666;-83
2022/10/29 04:18:07;;;;;;;8.50;3.80;;;18.00;99.90;;;;;;5059336;28;20575;-83
2022/10/29 04:20:33;;;;;;;17.93;4.40;;;18.10;99.90;;;;;;5059617;28;20581;-83
2022/10/29 04:22:59;;;;;;;12.00;6.00;;;18.10;99.90;;;;;;5058925;28;20567;-83
2022/10/29 04:25:24;;;;;;;9.43;4.37;;;18.10;99.90;;;;;;5060556;28;20591;-83
2022/10/29 04:27:53;;;;;;;9.70;5.23;;;18.10;99.90;;;;;;5043878;28;20215;-83
2022/10/29 04:30:19;;;;;;;11.50;5.27;;;18.10;99.90;;;;;;5059493;28;20173;-83
2022/10/29 04:32:45;;;;;;;10.40;5.70;;;18.10;99.90;;;;;;5057511;28;20722;-83
2022/10/29 04:35:11;;;;;;;10.27;4.90;;;18.20;99.90;;;;;;5063940;28;20595;-83
2022/10/29 04:37:36;;;;;;;8.57;4.77;;;18.20;99.90;;;;;;5059520;28;20165;-83
2022/10/29 04:40:02;;;;;;;8.00;4.80;;;18.20;99.90;;;;;;5060071;28;20161;-83
2022/10/29 04:42:28;;;;;;;12.50;5.40;;;18.20;99.90;;;;;;5061490;28;20175;-83
2022/10/29 04:44:54;;;;;;;13.77;3.77;;;18.20;99.90;;;;;;5059251;28;20593;-83
2022/10/29 04:47:19;;;;;;;13.73;4.97;;;18.20;99.90;;;;;;5059441;28;20176;-83
2022/10/29 04:49:45;;;;;;;10.40;4.17;;;18.30;99.90;;;;;;5059441;28;20189;-84
2022/10/29 04:52:11;;;;;;;9.57;4.60;;;18.30;99.90;;;;;;5055156;28;20173;-84
2022/10/29 04:54:37;;;;;;;12.20;4.43;;;18.30;99.90;;;;;;5056105;28;20172;-83
2022/10/29 04:57:02;;;;;;;7.53;4.33;;;18.30;99.90;;;;;;5055985;28;20656;-84
2022/10/29 04:59:28;;;;;;;8.90;4.70;;;18.30;99.90;;;;;;5037872;28;20173;-85
2022/10/29 05:01:54;;;;;;;10.80;4.57;;;18.30;99.90;;;;;;5056184;28;20173;-84
2022/10/29 05:04:19;;;;;;;6.70;4.30;;;18.30;99.90;;;;;;5057906;28;20227;-83
2022/10/29 05:06:45;;;;;;;9.53;4.70;;;18.30;99.90;;;;;;5057139;28;20184;-83
2022/10/29 05:09:11;;;;;;;9.17;5.40;;;18.30;99.90;;;;;;5056247;28;20204;-83
2022/10/29 05:11:37;;;;;;;6.37;4.17;;;18.30;99.90;;;;;;5058763;28;20555;-83
2022/10/29 05:14:02;;;;;;;10.30;4.40;;;18.30;99.90;;;;;;5058928;28;20161;-84
2022/10/29 05:16:28;;;;;;;14.70;4.97;;;18.30;99.90;;;;;;5056661;28;20177;-84
2022/10/29 05:18:54;;;;;;;10.07;4.53;;;18.30;99.90;;;;;;5042121;28;20169;-84
2022/10/29 05:21:19;;;;;;;6.93;4.20;;;18.30;99.90;;;;;;5057099;28;20180;-84
2022/10/29 05:23:45;;;;;;;10.43;4.30;;;18.20;99.90;;;;;;5058145;28;20180;-84
2022/10/29 05:26:11;;;;;;;12.93;5.80;;;18.20;99.90;;;;;;5058310;28;20858;-83
2022/10/29 05:28:36;;;;;;;11.40;5.30;;;18.20;99.90;;;;;;5055667;28;20721;-84
2022/10/29 05:31:02;;;;;;;13.83;5.70;;;18.10;99.90;;;;;;5056404;28;20226;-84
2022/10/29 05:33:28;;;;;;;11.30;5.00;;;18.10;99.90;;;;;;5055468;28;20172;-84
2022/10/29 05:35:54;;;;;;;8.60;4.70;;;18.10;99.90;;;;;;5055639;28;20192;-84
2022/10/29 05:38:19;;;;;;;7.97;4.10;;;18.10;99.90;;;;;;5055764;28;20882;-84
2022/10/29 05:40:45;;;;;;;8.70;4.10;;;18.10;99.90;;;;;;5055669;28;20169;-84
2022/10/29 05:43:15;;;;;;;8.33;3.87;;;18.10;99.90;;;;;;5054636;28;20239;-84
2022/10/29 05:45:41;;;;;;;10.13;4.70;;;18.10;99.90;;;;;;5054611;28;20757;-84
2022/10/29 05:48:09;;;;;;;9.50;4.53;;;18.10;99.90;;;;;;5054931;28;21217;-84
2022/10/29 05:50:35;;;;;;;9.60;4.27;;;18.10;99.90;;;;;;5054694;28;20576;-84
2022/10/29 05:53:06;;;;;;;7.03;4.63;;;18.10;99.90;;;;;;5054306;28;20702;-84
2022/10/29 05:55:33;;;;;;;12.63;5.63;;;18.10;99.90;;;;;;5057529;28;20622;-85
2022/10/29 05:58:01;;;;;;;15.40;5.97;;;18.10;99.90;;;;;;5074313;28;20575;-84
2022/10/29 06:00:30;;;;;;;9.80;5.20;;;18.10;99.90;;;;;;5036298;28;20657;-84
2022/10/29 06:02:55;;;;;;;7.23;4.43;;;18.10;99.90;;;;;;5078339;28;21152;-83
2022/10/29 06:05:21;;;;;;;8.60;4.00;;;18.10;99.90;;;;;;5078250;28;20603;-83
2022/10/29 06:07:58;;;;;;;9.30;5.13;;;18.10;99.90;;;;;;5079659;28;20251;-83
2022/10/29 06:10:26;;;;;;;9.83;4.20;;;18.10;99.90;;;;;;5080520;28;20993;-83
2022/10/29 06:12:52;;;;;;;7.80;4.10;;;18.10;99.90;;;;;;5071748;28;20598;-83
2022/10/29 06:15:18;;;;;;;9.70;4.50;;;18.20;99.90;;;;;;5079711;28;20607;-82
2022/10/29 06:17:45;;;;;;;9.10;4.07;;;18.20;99.90;;;;;;5079013;28;20571;-82
2022/10/29 06:20:12;;;;;;;9.83;4.80;;;18.20;99.90;;;;;;5077085;28;20596;-83
2022/10/29 06:22:38;;;;;;;5.33;3.73;;;18.30;99.90;;;;;;5073866;28;20623;-83
2022/10/29 06:25:05;;;;;;;10.67;4.20;;;18.30;99.90;;;;;;5075786;28;20597;-83
2022/10/29 06:27:30;;;;;;;9.47;3.90;;;18.30;99.90;;;;;;5077667;28;20574;-82
2022/10/29 06:29:56;;;;;;;6.10;3.60;;;18.30;99.90;;;;;;5075971;28;20615;-82
2022/10/29 06:32:22;;;;;;;9.10;3.87;;;18.30;99.90;;;;;;5080213;28;20539;-82
2022/10/29 06:34:47;;;;;;;9.90;4.60;;;18.30;99.90;;;;;;5077717;28;20169;-83
2022/10/29 06:37:13;;;;;;;8.27;3.80;;;18.30;99.90;;;;;;5073813;28;20168;-83
2022/10/29 06:39:39;;;;;;;7.43;4.40;;;18.30;99.90;;;;;;5072181;28;20168;-83
2022/10/29 06:42:05;;;;;;;5.83;4.13;;;18.30;99.90;;;;;;5072960;28;20563;-85
2022/10/29 06:44:30;;;;;;;7.00;3.87;;;18.30;99.90;;;;;;5073179;28;20180;-85
2022/10/29 06:46:56;;;;;;;11.80;4.10;;;18.30;99.90;;;;;;5072832;28;20226;-85
2022/10/29 06:49:22;;;;;;;5.23;3.93;;;18.30;99.90;;;;;;5072657;28;20263;-82
2022/10/29 06:51:48;;;;;;;7.87;4.37;;;18.30;99.90;;;;;;5072640;28;20161;-84
2022/10/29 06:54:14;;;;;;;10.77;4.23;;;18.30;99.90;;;;;;5072441;28;20558;-83
2022/10/29 06:56:40;;;;;;;7.10;4.33;;;18.30;99.90;;;;;;5072533;28;20223;-85
2022/10/29 06:59:05;;;;;;;9.17;4.63;;;18.20;99.90;;;;;;5072811;28;20173;-84
2022/10/29 07:01:32;;;;;;;10.37;4.73;;;18.20;99.90;;;;;;5069155;28;21204;-85
2022/10/29 07:04:01;;;;;;;12.27;4.67;;;18.30;99.90;;;;;;5031197;28;20220;-84
2022/10/29 07:06:30;;;;;;;8.50;3.67;;;18.20;99.90;;;;;;5068271;28;21235;-84
2022/10/29 07:08:56;;;;;;;8.43;4.23;;;18.30;99.90;;;;;;5050871;28;20611;-82
2022/10/29 07:11:21;;;;;;;6.57;4.20;;;18.30;99.90;;;;;;5051752;28;20586;-81
2022/10/29 07:13:47;;;;;;;10.20;4.03;;;18.30;99.90;;;;;;5051661;28;20180;-83
2022/10/29 07:16:13;;;;;;;7.57;4.67;;;18.20;99.90;;;;;;5051604;28;20193;-82
2022/10/29 07:18:39;;;;;;;11.50;5.10;;;18.30;99.90;;;;;;5051823;28;20216;-83
2022/10/29 07:21:05;;;;;;;7.73;4.37;;;18.30;99.90;;;;;;5050635;28;20656;-83
2022/10/29 07:23:30;;;;;;;8.27;4.57;;;18.30;99.90;;;;;;5030475;28;20577;-83
2022/10/29 07:25:56;;;;;;;9.50;5.30;;;18.30;99.90;;;;;;5055906;28;20641;-84
2022/10/29 07:28:24;;;;;;;12.00;4.70;;;18.30;99.90;;;;;;5072021;28;20230;-84
2022/10/29 07:30:56;;;;;;;7.10;4.10;;;18.30;99.90;;;;;;5073898;28;20165;-82
2022/10/29 07:33:22;;;;;;;9.53;4.77;;;18.30;99.90;;;;;;5071844;28;20972;-83
2022/10/29 07:35:48;;;;;;;7.20;4.70;;;18.30;99.90;;;;;;5071829;28;20656;-84
2022/10/29 07:38:14;;;;;;;14.37;7.33;;;18.40;99.90;;;;;;5053939;28;20659;-83
2022/10/29 07:40:46;;;;;;;10.07;4.93;;;18.40;99.90;;;;;;5071174;28;20207;-82
2022/10/29 07:43:12;;;;;;;10.33;5.80;;;18.50;99.90;;;;;;5051279;28;20555;-82
2022/10/29 07:45:37;;;;;;;9.80;4.30;;;18.60;99.90;;;;;;5056199;28;20611;-82
2022/10/29 07:48:08;;;;;;;6.73;3.90;;;18.60;99.90;;;;;;5051058;28;20219;-82
2022/10/29 07:50:35;;;;;;;14.33;4.73;;;18.70;99.90;;;;;;5054241;28;20195;-82
2022/10/29 07:53:02;;;;;;;6.87;3.80;;;18.90;99.90;;;;;;5058119;28;20676;-83
2022/10/29 07:55:28;;;;;;;6.27;3.50;;;19.00;99.90;;;;;;5056926;28;20950;-83
2022/10/29 07:58:05;;;;;;;10.20;4.40;;;19.10;99.90;;;;;;5060306;28;20578;-83
2022/10/29 08:00:34;;;;;;;8.27;4.40;;;19.10;99.90;;;;;;5058940;28;20534;-83
2022/10/29 08:03:00;;;;;;;12.30;4.43;;;19.20;99.90;;;;;;5079613;28;20563;-83
2022/10/29 08:05:28;;;;;;;9.10;4.20;;;19.30;99.90;;;;;;5077096;28;21034;-82
2022/10/29 08:07:54;;;;;;;9.40;4.17;;;19.30;99.90;;;;;;5077818;28;21334;-83
2022/10/29 08:10:21;;;;;;;7.00;3.90;;;19.40;99.90;;;;;;5061017;28;20577;-83
2022/10/29 08:12:56;;;;;;;9.20;4.50;;;19.50;99.90;;;;;;5079903;28;20562;-83
2022/10/29 08:15:22;;;;;;;9.00;5.00;;;19.60;99.90;;;;;;5078870;28;20593;-83
2022/10/29 08:17:48;;;;;;;6.13;4.13;;;19.60;99.90;;;;;;5079529;28;20574;-82
2022/10/29 08:20:15;;;;;;;11.87;6.13;;;19.70;99.90;;;;;;5078880;28;21026;-83
2022/10/29 08:22:41;;;;;;;10.37;5.57;;;19.70;99.90;;;;;;5052415;28;21174;-83
2022/10/29 08:25:07;;;;;;;11.13;4.27;;;19.70;99.90;;;;;;5044463;28;21526;-83
2022/10/29 08:27:33;;;;;;;12.50;4.57;;;19.70;99.90;;;;;;5078099;28;20586;-83
2022/10/29 08:29:59;;;;;;;16.83;6.67;;;19.70;99.90;;;;;;5078491;28;21008;-82
2022/10/29 08:32:25;;;;;;;8.10;5.10;;;19.70;99.90;;;;;;5059930;28;20559;-82
2022/10/29 08:34:50;;;;;;;15.73;4.07;;;19.80;99.90;;;;;;5079720;28;20161;-82
2022/10/29 08:37:16;;;;;;;10.83;4.60;;;19.80;99.90;;;;;;5061715;28;20230;-82
2022/10/29 08:39:42;;;;;;;9.80;4.00;;;19.80;99.90;;;;;;5080660;28;20573;-81
2022/10/29 08:42:38;;;;;;;9.20;5.13;;;19.80;99.90;;;;;;5079969;28;20512;-81
2022/10/29 08:45:16;;;;;;;9.30;3.60;;;19.80;99.90;;;;;;5081033;28;20245;-81
2022/10/29 08:47:50;;;;;;;9.80;3.53;;;19.80;99.90;;;;;;5081367;28;20618;-81
2022/10/29 08:50:40;;;;;;;11.13;4.40;;;19.80;99.90;;;;;;5082612;28;20567;-81
2022/10/29 08:53:16;;;;;;;8.30;3.20;;;19.80;99.90;;;;;;5083711;28;20656;-81
2022/10/29 08:55:43;;;;;;;10.60;4.00;;;19.90;99.90;;;;;;5082214;28;20596;-81
2022/10/29 08:58:37;;;;;;;5.37;3.73;;;19.90;99.90;;;;;;5085215;28;20562;-81
2022/10/29 09:01:11;;;;;;;7.83;3.83;;;19.90;99.90;;;;;;5088225;28;20602;-81
2022/10/29 09:03:37;;;;;;;7.37;4.00;;;20.00;99.90;;;;;;5081162;28;20673;-81
2022/10/29 09:06:24;;;;;;;5.50;3.53;;;20.10;99.90;;;;;;5079934;28;20673;-81
2022/10/29 09:09:25;;;;;;;10.00;4.17;;;20.10;99.90;;;;;;5060179;28;20635;-81
2022/10/29 09:12:20;;;;;;;6.93;3.93;;;20.20;99.90;;;;;;5049184;28;20663;-81
2022/10/29 09:15:30;;;;;;;13.90;3.63;;;20.30;99.90;;;;;;5076597;28;20674;-81
2022/10/29 09:18:13;;;;;;;11.80;4.03;;;20.50;99.90;;;;;;5004584;28;20942;-81
2022/10/29 09:20:54;;;;;;;9.50;3.53;;;20.90;99.90;;;;;;5076490;28;20555;-81
2022/10/29 09:23:51;;;;;;;9.17;4.23;;;21.30;99.90;;;;;;5075737;28;20563;-81
2022/10/29 09:26:25;;;;;;;7.63;3.90;;;21.70;99.90;;;;;;5074950;28;20574;-83
2022/10/29 09:29:17;;;;;;;6.97;3.60;;;22.20;99.90;;;;;;5058084;28;21184;-81
2022/10/29 09:32:11;;;;;;;8.90;4.63;;;22.40;99.90;;;;;;5074583;28;20634;-82
2022/10/29 09:34:53;;;;;;;5.60;3.20;;;22.50;99.90;;;;;;5071367;28;21226;-82
2022/10/29 09:37:37;;;;;;;9.80;3.60;;;22.50;99.90;;;;;;5077857;28;20570;-83
2022/10/29 09:40:11;;;;;;;9.33;4.00;;;22.50;99.90;;;;;;5074972;28;20563;-83
2022/10/29 09:42:40;;;;;;;7.67;3.40;;;22.50;99.90;;;;;;5073843;28;20893;-84
2022/10/29 09:45:11;;;;;;;8.90;4.13;;;22.50;99.90;;;;;;5073859;28;20618;-83
2022/10/29 09:47:56;;;;;;;7.33;3.53;;;22.50;99.90;;;;;;5072592;28;20969;-84
2022/10/29 09:50:38;;;;;;;11.07;2.80;;;22.50;99.90;;;;;;5073619;28;20657;-84
2022/10/29 09:53:04;;;;;;;8.07;3.33;;;22.50;99.90;;;;;;5071994;28;20903;-83
2022/10/29 09:55:39;;;;;;;8.30;3.30;;;22.70;99.90;;;;;;5049403;28;20681;-83
2022/10/29 09:58:05;;;;;;;7.13;2.57;;;22.80;99.90;;;;;;5068718;28;20255;-74
2022/10/29 10:00:32;;;;;;;6.93;3.10;;;22.90;99.90;;;;;;5048403;28;20631;-74
2022/10/29 10:03:09;;;;;;;8.33;2.93;;;23.00;99.90;;;;;;5064251;28;20624;-75
2022/10/29 10:05:54;;;;;;;8.57;2.93;;;23.10;99.90;;;;;;5072938;28;20605;-75
2022/10/29 10:08:20;;;;;;;8.87;3.13;;;23.30;99.90;;;;;;5055014;28;20945;-75
2022/10/29 10:11:05;;;;;;;13.20;3.30;;;23.60;99.90;;;;;;5072870;28;20620;-75
2022/10/29 10:13:48;;;;;;;11.90;4.10;;;23.60;99.90;;;;;;5074142;28;20164;-74
2022/10/29 10:16:32;;;;;;;5.43;3.13;;;23.70;99.90;;;;;;5073021;28;20583;-74
2022/10/29 10:18:57;;;;;;;8.90;2.87;;;23.80;99.90;;;;;;5067646;28;20982;-74
2022/10/29 10:21:30;;;;;;;11.80;4.57;;;23.70;99.90;;;;;;5049613;28;20652;-75
2022/10/29 10:23:57;;;;;;;10.70;3.83;;;23.60;99.90;;;;;;5072212;28;20579;-75
2022/10/29 10:26:29;;;;;;;9.93;4.20;;;23.50;99.90;;;;;;5072688;28;21157;-75
2022/10/29 10:29:16;;;;;;;8.37;4.03;;;23.50;99.90;;;;;;5072314;28;20606;-75
2022/10/29 10:31:47;;;;;;;9.60;3.93;;;23.40;99.90;;;;;;5051358;28;20663;-75
2022/10/29 10:34:21;;;;;;;8.73;3.50;;;23.30;99.90;;;;;;5052197;28;20570;-76
2022/10/29 10:36:55;;;;;;;12.17;4.70;;;23.30;99.90;;;;;;5054796;28;20637;-76
2022/10/29 10:39:26;;;;;;;10.43;3.70;;;23.30;99.90;;;;;;5054059;28;20617;-76
2022/10/29 10:41:53;;;;;;;9.33;3.00;;;23.30;99.90;;;;;;5052326;28;20610;-76
2022/10/29 10:44:21;;;;;;;8.80;3.43;;;23.30;99.90;;;;;;5052233;28;20572;-76
2022/10/29 10:46:50;;;;;;;10.13;3.83;;;23.30;99.90;;;;;;5052754;28;21178;-76
2022/10/29 10:52:27;;;;;;;9.67;3.03;;;23.30;99.90;;;;;;5052732;28;20638;-76
2022/10/29 10:55:15;;;;;;;10.07;3.43;;;23.20;99.90;;;;;;5050251;28;21995;-75
2022/10/29 10:58:07;;;;;;;9.90;3.20;;;23.20;99.90;;;;;;5059376;28;20597;-75
2022/10/29 11:00:44;;;;;;;5.20;3.43;;;23.10;99.90;;;;;;5053505;28;20593;-76
2022/10/29 11:03:20;;;;;;;8.93;4.03;;;23.10;99.90;;;;;;5042699;28;20607;-76
2022/10/29 11:06:04;;;;;;;5.90;3.17;;;23.10;99.90;;;;;;5053007;28;20614;-77
2022/10/29 11:08:40;;;;;;;10.43;4.97;;;23.10;99.90;;;;;;5050438;28;20685;-75
2022/10/29 11:11:11;;;;;;;9.87;3.57;;;23.10;99.90;;;;;;5051785;28;20675;-74
2022/10/29 11:13:39;;;;;;;7.13;3.80;;;23.10;99.90;;;;;;5051097;28;20564;-75
2022/10/29 11:16:37;;;;;;;8.40;4.97;;;23.10;99.90;;;;;;5062414;28;21015;-74
2022/10/29 11:19:18;;;;;;;6.33;3.60;;;23.20;99.90;;;;;;5045018;28;20694;-75
2022/10/29 11:22:22;;;;;;;8.10;4.03;;;23.30;99.90;;;;;;5041517;28;20590;-76
2022/10/29 11:24:56;;;;;;;8.20;4.37;;;23.40;99.90;;;;;;5071438;28;20650;-75
2022/10/29 11:27:44;;;;;;;9.50;4.63;;;23.40;99.90;;;;;;5075768;28;20555;-75
2022/10/29 11:30:13;;;;;;;9.97;3.50;;;23.50;99.90;;;;;;5072050;28;20632;-76
2022/10/29 11:33:04;;;;;;;6.67;4.60;;;23.60;99.90;;;;;;5058520;28;20571;-75
2022/10/29 11:35:49;;;;;;;8.23;3.40;;;23.60;99.90;;;;;;5051603;28;20587;-76
2022/10/29 11:38:21;;;;;;;8.63;4.40;;;23.70;99.90;;;;;;5051559;28;20953;-76
2022/10/29 11:41:11;;;;;;;13.30;4.67;;;23.80;99.90;;;;;;5051671;28;20614;-75
2022/10/29 11:43:37;;;;;;;8.40;2.80;;;23.70;99.90;;;;;;5054173;28;20563;-76
2022/10/29 11:46:20;;;;;;;10.47;4.67;;;23.70;99.90;;;;;;5034288;28;21204;-75
2022/10/29 11:49:05;;;;;;;6.33;3.93;;;23.80;99.90;;;;;;5033488;28;20201;-75
2022/10/29 11:51:44;;;;;;;6.97;3.63;;;23.70;99.90;;;;;;5051542;28;20571;-74
2022/10/29 11:54:35;;;;;;;9.97;4.10;;;23.80;99.90;;;;;;5051959;28;20602;-75
2022/10/29 11:57:26;;;;;;;9.60;3.40;;;24.00;99.90;;;;;;5051443;28;20556;-75
2022/10/29 12:00:09;;;;;;;10.03;3.97;;;24.10;99.90;;;;;;5051614;28;20921;-75
2022/10/29 12:03:18;;;;;;;7.73;3.63;;;24.20;99.90;;;;;;5018140;28;20606;-75
2022/10/29 12:06:32;;;;;;;7.17;3.33;;;24.30;99.90;;;;;;5051988;28;21259;-76
2022/10/29 12:09:12;;;;;;;16.50;3.87;;;24.30;99.90;;;;;;5037066;28;21084;-75
2022/10/29 12:11:54;;;;;;;8.40;4.10;;;24.30;99.90;;;;;;5051757;28;20602;-75
2022/10/29 12:14:32;;;;;;;7.63;3.73;;;24.30;99.90;;;;;;5050629;28;20591;-76
2022/10/29 12:17:25;;;;;;;6.30;3.13;;;24.40;99.90;;;;;;5050976;28;20690;-75
2022/10/29 12:20:01;;;;;;;7.90;3.67;;;24.30;99.90;;;;;;5031044;28;21017;-76
2022/10/29 12:22:43;;;;;;;8.97;4.00;;;24.40;99.90;;;;;;5031018;28;20591;-76
2022/10/29 12:25:27;;;;;;;7.03;3.33;;;24.40;99.90;;;;;;5013734;28;20741;-77
2022/10/29 12:28:21;;;;;;;6.63;3.50;;;24.40;99.90;;;;;;5046825;28;21212;-76
2022/10/29 12:31:03;;;;;;;5.43;2.80;;;24.50;99.90;;;;;;5048193;28;20685;-77
2022/10/29 12:33:55;;;;;;;8.47;2.70;;;24.50;99.90;;;;;;5032725;28;20951;-75
2022/10/29 12:36:48;;;;;;;6.33;3.07;;;24.60;99.90;;;;;;5013130;28;20617;-76
2022/10/29 12:39:24;;;;;;;8.67;3.57;;;24.50;99.90;;;;;;5043220;28;21262;-76
2022/10/29 12:41:52;;;;;;;7.27;4.00;;;24.50;99.90;;;;;;5057763;28;20625;-75
2022/10/29 12:44:34;;;;;;;8.83;3.20;;;24.40;99.90;;;;;;5056936;28;20611;-76
2022/10/29 12:47:12;;;;;;;8.70;3.83;;;24.30;99.90;;;;;;5055936;28;20583;-76
2022/10/29 12:49:55;;;;;;;7.47;3.33;;;24.30;99.90;;;;;;5064698;28;20626;-76
2022/10/29 12:52:37;;;;;;;9.40;4.30;;;24.30;99.90;;;;;;5067454;28;20623;-76
2022/10/29 12:55:06;;;;;;;4.60;2.47;;;24.30;99.90;;;;;;5064821;28;20705;-76
2022/10/29 12:57:34;;;;;;;8.50;4.33;;;24.30;99.90;;;;;;5055843;28;20685;-75
2022/10/29 13:00:22;;;;;;;8.50;4.03;;;24.30;99.90;;;;;;5056082;28;20632;-77
2022/10/29 13:02:50;;;;;;;8.07;4.13;;;24.30;99.90;;;;;;5051605;28;20590;-75
2022/10/29 13:05:34;;;;;;;11.70;3.40;;;24.20;99.90;;;;;;5052588;28;20610;-75
2022/10/29 13:08:03;;;;;;;8.23;4.20;;;24.20;99.90;;;;;;5052564;28;21245;-75
2022/10/29 13:10:32;;;;;;;12.43;4.00;;;24.20;99.90;;;;;;5053924;28;21190;-75
2022/10/29 13:12:57;;;;;;;9.17;4.47;;;24.20;99.90;;;;;;5056124;28;20590;-75